createdAt,value
2018-06-12T00:01:08.740Z,43.00
2018-06-12T00:03:37.196Z,44.27
2018-06-12T00:06:05.661Z,42.10
2018-06-12T00:08:34.144Z,42.20
2018-06-12T00:11:02.572Z,40.87
2018-06-12T00:13:31.016Z,39.87
2018-06-12T00:15:59.460Z,41.30
2018-06-12T00:18:27.907Z,40.73
2018-06-12T00:20:56.340Z,39.87
2018-06-12T00:23:24.783Z,41.70
2018-06-12T00:25:53.212Z,40.63
2018-06-12T00:28:21.635Z,41.60
2018-06-12T00:30:50.095Z,41.27
2018-06-12T00:33:18.539Z,40.60
2018-06-12T00:35:46.972Z,39.30
2018-06-12T00:38:15.411Z,41.00
2018-06-12T00:40:43.876Z,38.97
2018-06-12T00:43:12.303Z,40.73
2018-06-12T00:45:40.768Z,39.77
2018-06-12T00:48:09.209Z,39.17
2018-06-12T00:50:37.664Z,39.47
2018-06-12T00:53:06.088Z,40.97
2018-06-12T00:55:34.564Z,37.93
2018-06-12T00:58:02.999Z,40.30
2018-06-12T01:00:31.467Z,38.10
2018-06-12T01:02:59.892Z,38.60
2018-06-12T01:05:28.359Z,39.70
2018-06-12T01:07:56.792Z,37.47
2018-06-12T01:10:25.283Z,36.83
2018-06-12T01:12:53.747Z,37.50
2018-06-12T01:15:22.203Z,37.90
2018-06-12T01:17:50.657Z,38.70
2018-06-12T01:20:19.120Z,38.03
2018-06-12T01:22:47.548Z,37.00
2018-06-12T01:25:15.982Z,38.87
2018-06-12T01:27:44.460Z,38.40
2018-06-12T01:30:12.895Z,37.87
2018-06-12T01:32:41.344Z,36.80
2018-06-12T01:35:09.804Z,36.97
2018-06-12T01:37:38.256Z,39.17
2018-06-12T01:40:06.708Z,37.37
2018-06-12T01:42:35.133Z,37.60
2018-06-12T01:45:03.608Z,37.50
2018-06-12T01:47:32.896Z,37.70
2018-06-12T01:50:01.356Z,38.13
2018-06-12T01:52:29.782Z,36.30
2018-06-12T01:54:58.233Z,36.63
2018-06-12T01:57:26.691Z,35.83
2018-06-12T01:59:55.145Z,37.53
2018-06-12T02:02:23.571Z,38.50
2018-06-12T02:04:52.005Z,36.70
2018-06-12T02:07:20.482Z,36.53
2018-06-12T02:09:48.912Z,36.90
2018-06-12T02:12:17.388Z,37.70
2018-06-12T02:14:45.819Z,37.10
2018-06-12T02:17:14.275Z,36.40
2018-06-12T02:19:42.703Z,35.43
2018-06-12T02:22:11.136Z,38.70
2018-06-12T02:24:39.575Z,37.30
2018-06-12T02:27:08.020Z,38.50
2018-06-12T02:29:36.479Z,36.97
2018-06-12T02:32:05.112Z,38.00
2018-06-12T02:34:33.259Z,38.90
2018-06-12T02:37:01.729Z,36.80
2018-06-12T02:39:30.164Z,38.70
2018-06-12T02:41:58.620Z,26.87
2018-06-12T02:44:26.804Z,21.90
2018-06-12T02:46:55.215Z,19.30
2018-06-12T02:49:23.655Z,16.87
2018-06-12T02:51:51.807Z,16.67
2018-06-12T02:54:20.232Z,17.17
2018-06-12T02:56:48.677Z,15.37
2018-06-12T02:59:17.128Z,16.10
2018-06-12T03:01:45.576Z,15.97
2018-06-12T03:04:14.027Z,15.33
2018-06-12T03:06:42.464Z,15.80
2018-06-12T03:09:10.969Z,15.10
2018-06-12T03:11:39.400Z,16.20
2018-06-12T03:14:07.852Z,15.80
2018-06-12T03:16:35.979Z,15.83
2018-06-12T03:19:04.415Z,17.00
2018-06-12T03:21:32.571Z,17.10
2018-06-12T03:24:00.999Z,16.70
2018-06-12T03:26:29.456Z,15.67
2018-06-12T03:28:57.896Z,16.50
2018-06-12T03:31:26.347Z,16.17
2018-06-12T03:33:54.776Z,17.40
2018-06-12T03:36:23.227Z,18.40
2018-06-12T03:38:51.650Z,15.50
2018-06-12T03:41:19.771Z,15.87
2018-06-12T03:43:48.219Z,16.00
2018-06-12T03:46:16.827Z,16.43
2018-06-12T03:48:45.278Z,17.57
2018-06-12T03:51:13.394Z,16.43
2018-06-12T03:53:41.852Z,17.50
2018-06-12T03:56:10.320Z,17.57
2018-06-12T03:58:38.784Z,17.90
2018-06-12T04:01:06.897Z,17.07
2018-06-12T04:03:35.340Z,17.13
2018-06-12T04:06:03.504Z,16.50
2018-06-12T04:08:31.968Z,15.73
2018-06-12T04:11:00.480Z,16.97
2018-06-12T04:13:28.615Z,15.53
2018-06-12T04:15:57.105Z,14.83
2018-06-12T04:18:25.588Z,14.27
2018-06-12T04:20:54.080Z,14.60
2018-06-12T04:23:22.524Z,14.03
2018-06-12T04:25:50.959Z,12.60
2018-06-12T04:28:19.417Z,12.50
2018-06-12T04:30:47.922Z,12.10
2018-06-12T04:33:16.092Z,12.20
2018-06-12T04:35:44.558Z,14.20
2018-06-12T04:38:13.312Z,12.80
2018-06-12T04:40:41.789Z,11.10
2018-06-12T04:43:10.353Z,12.27
2018-06-12T04:45:38.830Z,11.60
2018-06-12T04:48:07.350Z,11.27
2018-06-12T04:50:36.811Z,11.60
2018-06-12T04:53:04.977Z,11.03
2018-06-12T04:55:33.470Z,11.43
2018-06-12T04:58:01.952Z,12.10
2018-06-12T05:00:30.128Z,10.53
2018-06-12T05:02:58.576Z,10.93
2018-06-12T05:05:27.024Z,10.80
2018-06-12T05:07:55.448Z,11.80
2018-06-12T05:10:23.892Z,10.90
2018-06-12T05:12:52.319Z,10.23
2018-06-12T05:15:20.469Z,10.33
2018-06-12T05:17:48.962Z,10.50
2018-06-12T05:20:17.404Z,8.83
2018-06-12T05:22:45.840Z,9.93
2018-06-12T05:25:14.260Z,8.80
2018-06-12T05:27:42.703Z,10.30
2018-06-12T05:30:11.142Z,9.50
2018-06-12T05:32:39.592Z,10.20
2018-06-12T05:35:08.012Z,11.30
2018-06-12T05:37:36.471Z,10.40
2018-06-12T05:40:04.969Z,9.00
2018-06-12T05:42:33.396Z,10.27
2018-06-12T05:45:01.838Z,10.00
2018-06-12T05:47:30.275Z,9.43
2018-06-12T05:49:58.728Z,10.27
2018-06-12T05:52:27.150Z,10.97
2018-06-12T05:54:55.599Z,10.70
2018-06-12T05:57:24.032Z,9.90
2018-06-12T05:59:52.464Z,10.37
2018-06-12T06:02:20.936Z,10.90
2018-06-12T06:04:49.059Z,10.00
2018-06-12T06:07:17.524Z,10.50
2018-06-12T06:09:45.956Z,10.67
2018-06-12T06:12:14.404Z,10.77
2018-06-12T06:14:42.839Z,38.03
2018-06-12T06:17:10.952Z,20.03
2018-06-12T06:19:39.412Z,11.80
2018-06-12T06:22:07.851Z,12.00
2018-06-12T06:24:36.295Z,11.33
2018-06-12T06:27:04.744Z,11.10
2018-06-12T06:29:33.199Z,11.40
2018-06-12T06:32:01.649Z,11.67
2018-06-12T06:34:30.079Z,12.20
2018-06-12T06:36:58.222Z,12.40
2018-06-12T06:39:26.652Z,12.00
2018-06-12T06:41:55.103Z,10.73
2018-06-12T06:44:23.220Z,10.40
2018-06-12T06:46:51.676Z,10.27
2018-06-12T06:49:19.791Z,10.97
2018-06-12T06:51:48.264Z,10.00
2018-06-12T06:54:16.699Z,11.40
2018-06-12T06:56:45.132Z,10.83
2018-06-12T06:59:13.592Z,11.30
2018-06-12T07:01:42.012Z,10.60
2018-06-12T07:04:10.468Z,9.97
2018-06-12T07:06:38.901Z,10.73
2018-06-12T07:09:07.706Z,10.97
2018-06-12T07:11:36.107Z,10.07
2018-06-12T07:14:04.584Z,10.20
2018-06-12T07:16:33.039Z,10.27
2018-06-12T07:19:01.215Z,10.70
2018-06-12T07:21:35.099Z,10.23
2018-06-12T07:24:03.536Z,11.20
2018-06-12T07:26:31.984Z,10.20
2018-06-12T07:29:00.412Z,10.77
2018-06-12T07:31:28.861Z,10.70
2018-06-12T07:33:57.300Z,11.50
2018-06-12T07:36:25.738Z,11.30
2018-06-12T07:38:54.200Z,10.30
2018-06-12T07:41:22.632Z,10.43
2018-06-12T07:43:51.088Z,11.27
2018-06-12T07:46:19.524Z,11.60
2018-06-12T07:48:47.769Z,10.60
2018-06-12T07:51:16.240Z,11.47
2018-06-12T07:53:44.716Z,10.50
2018-06-12T07:56:13.178Z,10.23
2018-06-12T07:58:41.672Z,11.27
2018-06-12T08:01:10.120Z,10.90
2018-06-12T08:03:38.560Z,9.90
2018-06-12T08:06:07.012Z,10.50
2018-06-12T08:08:35.435Z,10.67
2018-06-12T08:11:03.900Z,11.50
2018-06-12T08:13:32.323Z,10.43
2018-06-12T08:16:00.772Z,10.10
2018-06-12T08:18:29.219Z,11.07
2018-06-12T08:20:57.668Z,11.20
2018-06-12T08:23:26.125Z,10.87
2018-06-12T08:25:54.571Z,10.93
2018-06-12T08:28:23.035Z,10.93
2018-06-12T08:30:51.460Z,11.30
2018-06-12T08:33:19.920Z,11.30
2018-06-12T08:35:48.039Z,11.70
2018-06-12T08:38:16.508Z,11.20
2018-06-12T08:40:44.948Z,10.63
2018-06-12T08:43:13.380Z,12.30
2018-06-12T08:45:41.840Z,12.53
2018-06-12T08:48:09.958Z,12.07
2018-06-12T08:50:38.424Z,11.80
2018-06-12T08:53:07.164Z,11.60
2018-06-12T08:55:35.636Z,11.30
2018-06-12T08:58:04.081Z,10.97
2018-06-12T09:00:32.519Z,11.93
2018-06-12T09:03:00.968Z,12.00
2018-06-12T09:05:29.415Z,11.97
2018-06-12T09:07:57.879Z,12.20
2018-06-12T09:10:26.308Z,12.23
2018-06-12T09:12:54.759Z,11.70
2018-06-12T09:15:23.192Z,12.10
2018-06-12T09:17:51.647Z,11.77
2018-06-12T09:20:20.075Z,13.20
2018-06-12T09:22:48.216Z,12.10
2018-06-12T09:25:16.654Z,12.13
2018-06-12T09:27:48.043Z,12.47
2018-06-12T09:30:16.567Z,11.50
2018-06-12T09:32:44.762Z,12.70
2018-06-12T09:35:13.220Z,11.30
2018-06-12T09:37:41.683Z,11.17
2018-06-12T09:40:10.124Z,12.43
2018-06-12T09:42:38.584Z,12.03
2018-06-12T09:45:07.068Z,12.67
2018-06-12T09:47:35.528Z,12.47
2018-06-12T09:50:03.675Z,11.63
2018-06-12T09:52:32.131Z,11.70
2018-06-12T09:55:00.567Z,13.10
2018-06-12T09:57:28.683Z,12.90
2018-06-12T09:59:57.135Z,12.70
2018-06-12T10:02:25.564Z,13.00
2018-06-12T10:04:54.020Z,13.53
2018-06-12T10:07:22.449Z,12.90
2018-06-12T10:09:50.591Z,12.60
2018-06-12T10:12:19.024Z,12.60
2018-06-12T10:14:47.478Z,13.00
2018-06-12T10:17:15.924Z,12.40
2018-06-12T10:19:44.348Z,11.83
2018-06-12T10:22:12.488Z,13.10
2018-06-12T10:24:40.923Z,13.30
2018-06-12T10:27:09.373Z,13.67
2018-06-12T10:29:37.792Z,13.33
2018-06-12T10:32:06.291Z,11.17
2018-06-12T10:34:34.732Z,13.17
2018-06-12T10:37:03.236Z,13.37
2018-06-12T10:39:31.648Z,13.83
2018-06-12T10:42:00.075Z,13.90
2018-06-12T10:44:28.203Z,13.30
2018-06-12T10:46:56.631Z,13.70
2018-06-12T10:49:24.763Z,13.27
2018-06-12T10:51:53.180Z,12.93
2018-06-12T10:54:21.311Z,13.10
2018-06-12T10:56:49.764Z,13.40
2018-06-12T10:59:18.192Z,11.40
2018-06-12T11:01:46.652Z,13.30
2018-06-12T11:04:15.068Z,12.47
2018-06-12T11:06:43.211Z,12.60
2018-06-12T11:09:11.645Z,12.40
2018-06-12T11:11:40.076Z,12.63
2018-06-12T11:14:08.523Z,12.30
2018-06-12T11:16:36.947Z,12.17
2018-06-12T11:19:05.512Z,12.70
2018-06-12T11:21:33.952Z,12.77
2018-06-12T11:24:02.388Z,15.00
2018-06-12T11:26:30.840Z,18.07
2018-06-12T11:28:59.266Z,12.23
2018-06-12T11:31:27.411Z,13.97
2018-06-12T11:33:55.843Z,14.27
2018-06-12T11:36:24.299Z,14.07
2018-06-12T11:38:52.736Z,13.70
2018-06-12T11:41:21.180Z,13.97
2018-06-12T11:43:50.016Z,12.63
2018-06-12T11:46:18.470Z,13.23
2018-06-12T11:48:46.963Z,13.43
2018-06-12T11:51:15.419Z,13.90
2018-06-12T11:53:43.879Z,14.77
2018-06-12T11:56:12.043Z,13.03
2018-06-12T11:58:40.502Z,13.67
2018-06-12T12:01:09.100Z,12.70
2018-06-12T12:03:37.533Z,12.70
2018-06-12T12:06:05.999Z,12.63
2018-06-12T12:08:34.439Z,12.37
2018-06-12T12:11:02.899Z,12.97
2018-06-12T12:13:31.360Z,14.00
2018-06-12T12:15:59.794Z,13.30
2018-06-12T12:18:28.244Z,13.30
2018-06-12T12:20:56.675Z,12.47
2018-06-12T12:23:25.149Z,12.47
2018-06-12T12:25:53.600Z,12.20
2018-06-12T12:28:22.031Z,12.40
2018-06-12T12:30:50.492Z,13.30
2018-06-12T12:33:18.928Z,13.13
2018-06-12T12:35:47.372Z,12.63
2018-06-12T12:38:15.832Z,12.97
2018-06-12T12:40:43.956Z,12.00
2018-06-12T12:43:12.424Z,12.63
2018-06-12T12:45:40.864Z,13.90
2018-06-12T12:48:09.283Z,13.43
2018-06-12T12:50:37.757Z,13.67
2018-06-12T12:53:06.377Z,13.30
2018-06-12T12:55:34.972Z,12.50
2018-06-12T12:58:03.435Z,12.50
2018-06-12T13:00:31.920Z,12.90
2018-06-12T13:03:00.397Z,12.93
2018-06-12T13:05:28.856Z,13.40
2018-06-12T13:07:57.348Z,11.47
2018-06-12T13:10:25.800Z,12.73
2018-06-12T13:12:54.279Z,12.60
2018-06-12T13:15:22.412Z,11.83
2018-06-12T13:17:50.865Z,12.80
2018-06-12T13:20:19.305Z,11.80
2018-06-12T13:22:47.747Z,12.00
2018-06-12T13:25:16.207Z,12.37
2018-06-12T13:27:44.637Z,11.53
2018-06-12T13:30:13.088Z,12.00
2018-06-12T13:32:41.536Z,12.00
2018-06-12T13:35:09.981Z,12.03
2018-06-12T13:37:38.430Z,10.70
2018-06-12T13:40:06.876Z,10.40
2018-06-12T13:42:35.323Z,10.93
2018-06-12T13:45:03.800Z,10.87
2018-06-12T13:47:32.236Z,10.77
2018-06-12T13:50:00.696Z,10.00
2018-06-12T13:52:29.130Z,10.73
2018-06-12T13:54:57.575Z,9.60
2018-06-12T13:57:26.052Z,10.13
2018-06-12T13:59:54.540Z,10.20
2018-06-12T14:02:23.009Z,11.20
2018-06-12T14:04:51.484Z,10.73
2018-06-12T14:07:19.975Z,9.43
2018-06-12T14:09:48.452Z,10.33
2018-06-12T14:12:16.916Z,10.10
2018-06-12T14:14:45.332Z,9.20
2018-06-12T14:17:13.775Z,9.37
2018-06-12T14:19:42.199Z,9.50
2018-06-12T14:22:10.616Z,9.07
2018-06-12T14:24:39.069Z,9.50
2018-06-12T14:27:07.507Z,8.83
2018-06-12T14:29:35.643Z,8.43
2018-06-12T14:32:04.067Z,8.70
2018-06-12T14:34:32.503Z,8.60
2018-06-12T14:37:00.919Z,8.67
2018-06-12T14:39:29.051Z,8.00
2018-06-12T14:41:57.463Z,8.10
2018-06-12T14:44:25.583Z,8.17
2018-06-12T14:46:54.035Z,7.80
2018-06-12T14:49:22.484Z,7.73
2018-06-12T14:51:50.924Z,7.90
2018-06-12T14:54:19.352Z,8.00
2018-06-12T14:56:47.796Z,7.47
2018-06-12T14:59:16.220Z,7.70
2018-06-12T15:01:44.644Z,7.90
2018-06-12T15:04:13.092Z,7.83
2018-06-12T15:06:41.195Z,7.47
2018-06-12T15:09:09.635Z,8.37
2018-06-12T15:11:38.060Z,7.90
2018-06-12T15:14:06.588Z,7.40
2018-06-12T15:16:35.009Z,7.90
2018-06-12T15:19:03.436Z,8.40
2018-06-12T15:21:31.883Z,7.37
2018-06-12T15:24:00.348Z,7.43
2018-06-12T15:26:28.788Z,8.47
2018-06-12T15:28:57.236Z,8.50
2018-06-12T15:31:25.691Z,8.37
2018-06-12T15:33:54.181Z,9.13
2018-06-12T15:36:22.628Z,9.30
2018-06-12T15:38:51.082Z,9.10
2018-06-12T15:41:19.652Z,9.10
2018-06-12T15:43:48.147Z,9.07
2018-06-12T15:46:16.616Z,9.63
2018-06-12T15:48:45.066Z,9.10
2018-06-12T15:51:13.553Z,9.77
2018-06-12T15:53:41.980Z,9.77
2018-06-12T15:56:10.480Z,10.03
2018-06-12T15:58:38.872Z,9.27
2018-06-12T16:01:07.340Z,9.03
2018-06-12T16:03:35.475Z,10.30
2018-06-12T16:06:03.911Z,9.80
2018-06-12T16:08:32.356Z,9.77
2018-06-12T16:11:00.783Z,9.17
2018-06-12T16:13:29.224Z,9.57
2018-06-12T16:15:57.636Z,9.47
2018-06-12T16:18:26.084Z,9.77
2018-06-12T16:20:54.535Z,9.97
2018-06-12T16:23:22.975Z,9.70
2018-06-12T16:25:51.088Z,10.00
2018-06-12T16:28:19.511Z,10.40
2018-06-12T16:30:47.960Z,9.70
2018-06-12T16:33:16.391Z,9.90
2018-06-12T16:35:44.846Z,10.17
2018-06-12T16:38:13.272Z,10.00
2018-06-12T16:40:41.715Z,9.20
2018-06-12T16:43:10.139Z,9.50
2018-06-12T16:45:38.592Z,9.17
2018-06-12T16:48:06.705Z,9.07
2018-06-12T16:50:35.175Z,9.17
2018-06-12T16:53:03.600Z,8.33
2018-06-12T16:55:32.048Z,8.20
2018-06-12T16:58:00.503Z,7.70
2018-06-12T17:00:28.937Z,8.20
2018-06-12T17:02:57.396Z,8.20
2018-06-12T17:05:25.888Z,8.33
2018-06-12T17:07:54.340Z,8.23
2018-06-12T17:10:22.834Z,7.33
2018-06-12T17:12:50.894Z,6.70
2018-06-12T17:15:19.372Z,7.70
2018-06-12T17:17:47.829Z,6.83
2018-06-12T17:20:16.308Z,6.80
2018-06-12T17:22:44.423Z,18.17
2018-06-12T17:25:12.867Z,7.33
2018-06-12T17:27:40.974Z,7.00
2018-06-12T17:30:09.436Z,8.10
2018-06-12T17:32:37.864Z,6.63
2018-06-12T17:35:06.318Z,6.60
2018-06-12T17:37:34.774Z,6.50
2018-06-12T17:40:03.212Z,6.80
2018-06-12T17:42:31.359Z,6.90
2018-06-12T17:44:59.787Z,6.03
2018-06-12T17:47:27.928Z,6.20
2018-06-12T17:49:56.345Z,6.33
2018-06-12T17:52:24.459Z,5.73
2018-06-12T17:54:52.933Z,6.27
2018-06-12T17:57:21.348Z,5.93
2018-06-12T17:59:49.807Z,5.83
2018-06-12T18:02:18.227Z,5.50
2018-06-12T18:04:46.675Z,5.00
2018-06-12T18:07:15.113Z,6.20
2018-06-12T18:09:43.572Z,5.50
2018-06-12T18:12:11.983Z,5.90
2018-06-12T18:14:40.421Z,5.50
2018-06-12T18:17:08.879Z,5.90
2018-06-12T18:19:37.300Z,5.50
2018-06-12T18:22:05.826Z,5.37
2018-06-12T18:24:34.300Z,6.90
2018-06-12T18:27:02.735Z,5.37
2018-06-12T18:29:31.155Z,4.80
2018-06-12T18:31:59.607Z,5.10
2018-06-12T18:34:28.023Z,5.00
2018-06-12T18:36:56.456Z,5.10
2018-06-12T18:39:24.904Z,4.10
2018-06-12T18:41:53.334Z,4.67
2018-06-12T18:44:21.776Z,4.67
2018-06-12T18:46:50.206Z,5.37
2018-06-12T18:49:18.651Z,4.63
2018-06-12T18:51:47.117Z,4.80
2018-06-12T18:54:15.535Z,4.20
2018-06-12T18:56:44.360Z,4.37
2018-06-12T18:59:12.466Z,4.10
2018-06-12T19:01:40.920Z,4.40
2018-06-12T19:04:09.048Z,4.40
2018-06-12T19:06:37.559Z,4.37
2018-06-12T19:09:07.025Z,3.60
2018-06-12T19:11:35.492Z,4.27
2018-06-12T19:14:03.978Z,4.57
2018-06-12T19:16:32.408Z,4.17
2018-06-12T19:19:00.843Z,4.67
2018-06-12T19:21:29.263Z,4.93
2018-06-12T19:23:57.712Z,4.53
2018-06-12T19:26:26.220Z,4.80
2018-06-12T19:28:54.636Z,4.40
2018-06-12T19:31:23.088Z,4.53
2018-06-12T19:33:51.928Z,4.30
2018-06-12T19:36:20.360Z,4.30
2018-06-12T19:38:48.812Z,4.50
2018-06-12T19:41:17.236Z,3.90
2018-06-12T19:43:45.676Z,4.20
2018-06-12T19:46:14.103Z,4.47
2018-06-12T19:48:42.551Z,4.20
2018-06-12T19:51:11.033Z,3.87
2018-06-12T19:53:39.504Z,4.30
2018-06-12T19:56:07.944Z,3.80
2018-06-12T19:58:36.369Z,3.67
2018-06-12T20:01:04.898Z,4.43
2018-06-12T20:03:33.267Z,4.30
2018-06-12T20:06:01.712Z,4.10
2018-06-12T20:08:30.177Z,4.17
2018-06-12T20:10:58.636Z,4.10
2018-06-12T20:13:26.743Z,4.00
2018-06-12T20:15:55.187Z,3.83
2018-06-12T20:18:23.628Z,3.80
2018-06-12T20:20:52.051Z,4.10
2018-06-12T20:23:20.184Z,4.67
2018-06-12T20:25:48.612Z,4.17
2018-06-12T20:28:17.057Z,4.70
2018-06-12T20:30:45.499Z,4.67
2018-06-12T20:33:13.970Z,4.20
2018-06-12T20:35:42.388Z,4.40
2018-06-12T20:38:10.823Z,4.60
2018-06-12T20:40:39.253Z,4.20
2018-06-12T20:43:07.684Z,4.63
2018-06-12T20:45:36.155Z,4.33
2018-06-12T20:48:04.638Z,4.50
2018-06-12T20:50:33.091Z,5.20
2018-06-12T20:53:01.512Z,4.57
2018-06-12T20:55:29.961Z,4.50
2018-06-12T20:57:58.078Z,4.47
2018-06-12T21:00:26.528Z,4.60
2018-06-12T21:02:54.956Z,4.30
2018-06-12T21:05:23.391Z,4.87
2018-06-12T21:07:51.852Z,5.03
2018-06-12T21:10:19.977Z,4.50
2018-06-12T21:12:48.421Z,4.27
2018-06-12T21:15:16.852Z,4.53
2018-06-12T21:17:45.299Z,4.40
2018-06-12T21:20:13.728Z,5.30
2018-06-12T21:22:42.178Z,4.70
2018-06-12T21:25:10.603Z,4.80
2018-06-12T21:27:39.049Z,4.83
2018-06-12T21:30:07.508Z,4.67
2018-06-12T21:32:35.932Z,4.90
2018-06-12T21:35:04.431Z,4.70
2018-06-12T21:37:32.843Z,5.20
2018-06-12T21:40:01.290Z,5.67
2018-06-12T21:42:29.712Z,5.00
2018-06-12T21:44:58.151Z,4.73
2018-06-12T21:47:26.572Z,5.40
2018-06-12T21:49:55.016Z,5.33
2018-06-12T21:52:23.432Z,6.07
2018-06-12T21:54:51.847Z,6.03
2018-06-12T21:57:20.287Z,5.80
2018-06-12T21:59:48.716Z,6.53
2018-06-12T22:02:17.183Z,7.07
2018-06-12T22:04:45.611Z,6.00
2018-06-12T22:07:14.060Z,6.30
2018-06-12T22:09:42.486Z,6.80
2018-06-12T22:12:10.944Z,6.97
2018-06-12T22:14:39.376Z,6.43
2018-06-12T22:17:07.849Z,6.77
2018-06-12T22:19:36.268Z,7.40
2018-06-12T22:22:04.691Z,6.93
2018-06-12T22:24:33.140Z,7.23
2018-06-12T22:27:01.569Z,6.80
2018-06-12T22:29:30.036Z,6.67
2018-06-12T22:31:58.465Z,7.03
2018-06-12T22:34:26.920Z,6.00
2018-06-12T22:36:55.350Z,6.33
2018-06-12T22:39:23.799Z,7.40
2018-06-12T22:41:52.215Z,6.33
2018-06-12T22:44:20.326Z,6.90
2018-06-12T22:46:48.779Z,6.60
2018-06-12T22:49:16.887Z,6.27
2018-06-12T22:51:45.626Z,7.00
2018-06-12T22:54:14.089Z,6.70
2018-06-12T22:56:42.577Z,6.40
2018-06-12T22:59:11.037Z,6.90
2018-06-12T23:01:39.544Z,6.23
2018-06-12T23:04:08.029Z,5.67
2018-06-12T23:06:36.506Z,6.00
2018-06-12T23:09:07.565Z,6.17
2018-06-12T23:11:35.685Z,5.50
2018-06-12T23:14:04.404Z,5.70
2018-06-12T23:16:32.864Z,5.83
2018-06-12T23:19:01.284Z,6.23
2018-06-12T23:21:38.983Z,5.90
2018-06-12T23:24:07.103Z,5.60
2018-06-12T23:26:35.544Z,5.20
2018-06-12T23:29:03.675Z,5.80
2018-06-12T23:31:32.091Z,5.77
2018-06-12T23:34:00.543Z,6.00
2018-06-12T23:36:29.287Z,5.93
2018-06-12T23:38:57.732Z,5.50
2018-06-12T23:41:26.161Z,5.83
2018-06-12T23:43:54.984Z,5.50
2018-06-12T23:46:23.437Z,5.50
2018-06-12T23:48:52.151Z,5.43
2018-06-12T23:51:20.592Z,5.60
2018-06-12T23:53:49.009Z,5.87
2018-06-12T23:56:17.452Z,5.43
2018-06-12T23:58:45.871Z,5.00
